Terminal Aerodrome Forecast
Issued by NWS Wakefield, VA

Home | Current Version | Previous Version | Text Only | Print | Product List | Glossary On
Versions: 1 2 3 4 5 6 7 8 9 10 11 12 13 14 15 16 17 18 19 20 21 22 23 24
000
FTUS41 KAKQ 242325
TAFECG
TAF
KECG 242325Z 2500/2524 03011KT P6SM SKC
     FM250700 05009KT P6SM SCT025
     FM251200 04011KT P6SM BKN015
     FM251400 04013G20KT P6SM BKN020
     FM252200 05015G23KT P6SM BKN008=

USA.gov is the U.S. government's official web portal to all federal, state and local government web resources and services.